Terminal Aerodrome Forecast
Issued by NWS

Home | Current Version | Previous Version | Text Only | Print | Product List | Glossary On
Versions: 1 2 3 4 5 6 7 8 9 10 11 12 13 14 15 16 17 18 19 20 21 22 23 24 25 26 27 28 29 30 31 32 33 34 35 36 37
365
FTUS43 KDDC 161032 AAA
TAFGCK
TAF AMD
KGCK 161032Z 1611/1706 02015G25KT P6SM SCT015 BKN100
     FM161300 02013KT P6SM SCT150
     FM162100 18010KT P6SM SCT250=

USA.gov is the U.S. government's official web portal to all federal, state and local government web resources and services.